createdAt,value
2018-11-02T00:02:08.424Z,8.13
2018-11-02T00:04:35.169Z,7.80
2018-11-02T00:07:01.889Z,8.10
2018-11-02T00:09:27.887Z,7.67
2018-11-02T00:11:53.884Z,7.80
2018-11-02T00:14:19.893Z,7.40
2018-11-02T00:16:45.879Z,7.67
2018-11-02T00:19:11.864Z,8.07
2018-11-02T00:21:37.883Z,7.97
2018-11-02T00:24:03.845Z,8.40
2018-11-02T00:26:29.847Z,7.90
2018-11-02T00:28:55.844Z,8.27
2018-11-02T00:31:21.839Z,8.13
2018-11-02T00:33:48.555Z,8.50
2018-11-02T00:36:14.538Z,7.53
2018-11-02T00:38:40.535Z,7.13
2018-11-02T00:41:06.532Z,7.40
2018-11-02T00:43:32.552Z,7.50
2018-11-02T00:45:58.526Z,7.97
2018-11-02T00:48:24.538Z,7.87
2018-11-02T00:50:50.520Z,7.97
2018-11-02T00:53:16.892Z,8.60
2018-11-02T00:55:42.865Z,8.27
2018-11-02T00:58:08.857Z,7.37
2018-11-02T01:00:34.822Z,8.53
2018-11-02T01:03:00.814Z,8.07
2018-11-02T01:05:26.785Z,7.30
2018-11-02T01:07:52.725Z,9.23
2018-11-02T01:10:19.448Z,8.37
2018-11-02T01:12:45.423Z,8.20
2018-11-02T01:15:11.396Z,9.20
2018-11-02T01:17:37.365Z,7.83
2018-11-02T01:20:03.361Z,8.77
2018-11-02T01:22:29.331Z,8.73
2018-11-02T01:24:55.298Z,9.33
2018-11-02T01:27:21.283Z,8.83
2018-11-02T01:29:47.279Z,8.47
2018-11-02T01:32:13.264Z,8.80
2018-11-02T01:34:39.323Z,8.90
2018-11-02T01:37:05.656Z,9.27
2018-11-02T01:39:31.629Z,8.80
2018-11-02T01:41:57.618Z,8.60
2018-11-02T01:44:23.585Z,9.43
2018-11-02T01:46:50.322Z,10.50
2018-11-02T01:49:17.043Z,9.17
2018-11-02T01:51:43.043Z,9.43
2018-11-02T01:54:09.023Z,9.23
2018-11-02T01:56:35.039Z,9.57
2018-11-02T01:59:01.002Z,9.07
2018-11-02T02:01:26.955Z,9.03
2018-11-02T02:03:52.934Z,9.80
2018-11-02T02:06:18.902Z,10.40
2018-11-02T02:08:45.643Z,9.33
2018-11-02T02:11:11.617Z,9.80
2018-11-02T02:13:37.611Z,9.53
2018-11-02T02:16:04.322Z,9.00
2018-11-02T02:18:30.323Z,8.83
2018-11-02T02:20:56.324Z,10.00
2018-11-02T02:23:22.306Z,8.93
2018-11-02T02:25:48.279Z,9.60
2018-11-02T02:28:14.284Z,8.77
2018-11-02T02:30:41.112Z,9.23
2018-11-02T02:33:07.818Z,8.47
2018-11-02T02:35:33.816Z,9.53
2018-11-02T02:37:59.790Z,9.00
2018-11-02T02:40:26.537Z,8.87
2018-11-02T02:42:52.502Z,9.20
2018-11-02T02:45:18.518Z,9.27
2018-11-02T02:47:44.485Z,9.07
2018-11-02T02:50:10.445Z,9.57
2018-11-02T02:52:36.520Z,9.80
2018-11-02T02:55:02.494Z,9.67
2018-11-02T02:57:28.502Z,8.87
2018-11-02T02:59:55.207Z,9.30
2018-11-02T03:02:21.210Z,10.10
2018-11-02T03:04:47.195Z,10.00
2018-11-02T03:07:13.217Z,9.50
2018-11-02T03:09:39.218Z,8.93
2018-11-02T03:12:05.182Z,8.93
2018-11-02T03:14:31.170Z,8.70
2018-11-02T03:16:57.896Z,8.73
2018-11-02T03:19:23.890Z,7.83
2018-11-02T03:21:49.890Z,8.30
2018-11-02T03:24:15.908Z,8.67
2018-11-02T03:26:41.875Z,8.17
2018-11-02T03:29:07.872Z,8.23
2018-11-02T03:31:34.209Z,7.73
2018-11-02T03:34:00.182Z,7.83
2018-11-02T03:36:26.930Z,8.40
2018-11-02T03:38:53.651Z,7.60
2018-11-02T03:41:20.420Z,8.10
2018-11-02T03:43:46.403Z,9.03
2018-11-02T03:46:12.414Z,8.57
2018-11-02T03:48:38.368Z,7.20
2018-11-02T03:51:05.188Z,7.23
2018-11-02T03:53:31.168Z,7.57
2018-11-02T03:55:57.243Z,7.27
2018-11-02T03:58:23.524Z,7.33
2018-11-02T04:00:49.489Z,7.57
2018-11-02T04:03:15.473Z,8.03
2018-11-02T04:05:41.442Z,7.23
2018-11-02T04:08:07.388Z,6.83
2018-11-02T04:10:34.114Z,7.80
2018-11-02T04:13:00.081Z,7.73
2018-11-02T04:15:26.093Z,6.77
2018-11-02T04:17:52.055Z,7.27
2018-11-02T04:20:18.050Z,7.13
2018-11-02T04:22:44.043Z,7.37
2018-11-02T04:25:10.053Z,7.03
2018-11-02T04:27:36.768Z,6.90
2018-11-02T04:30:02.770Z,6.63
2018-11-02T04:32:28.772Z,6.80
2018-11-02T04:34:54.764Z,7.20
2018-11-02T04:37:21.484Z,6.67
2018-11-02T04:39:47.485Z,7.00
2018-11-02T04:42:13.459Z,7.30
2018-11-02T04:44:40.181Z,7.40
2018-11-02T04:47:06.178Z,7.33
2018-11-02T04:49:32.167Z,7.30
2018-11-02T04:51:58.166Z,7.20
2018-11-02T04:54:24.892Z,6.97
2018-11-02T04:56:51.622Z,7.30
2018-11-02T04:59:17.594Z,7.13
2018-11-02T05:01:43.597Z,7.20
2018-11-02T05:04:10.317Z,7.40
2018-11-02T05:06:36.311Z,6.40
2018-11-02T05:09:02.293Z,6.63
2018-11-02T05:11:28.329Z,6.20
2018-11-02T05:13:54.287Z,5.70
2018-11-02T05:16:20.275Z,4.30
2018-11-02T05:18:46.269Z,4.00
2018-11-02T05:21:13.033Z,3.80
2018-11-02T05:23:39.007Z,2.73
2018-11-02T05:26:04.979Z,2.10
2018-11-02T05:28:30.986Z,1.50
2018-11-02T05:30:57.736Z,1.30
2018-11-02T05:33:24.454Z,1.20
2018-11-02T05:35:51.175Z,1.10
2018-11-02T05:38:17.949Z,0.97
2018-11-02T05:40:44.666Z,0.80
2018-11-02T05:43:10.953Z,0.80
2018-11-02T05:45:36.938Z,0.53
2018-11-02T05:48:03.676Z,0.83
2018-11-02T05:50:29.698Z,0.50
2018-11-02T05:52:56.419Z,0.60
2018-11-02T05:55:22.415Z,0.80
2018-11-02T05:57:48.387Z,0.80
2018-11-02T06:00:15.127Z,0.60
2018-11-02T06:02:41.115Z,0.63
2018-11-02T06:05:07.160Z,0.80
2018-11-02T06:07:33.872Z,0.90
2018-11-02T06:09:59.917Z,0.73
2018-11-02T06:12:25.916Z,0.80
2018-11-02T06:14:51.910Z,0.70
2018-11-02T06:17:17.908Z,0.73
2018-11-02T06:19:43.904Z,0.70
2018-11-02T06:22:09.899Z,0.63
2018-11-02T06:24:35.857Z,0.83
2018-11-02T06:27:02.587Z,0.70
2018-11-02T06:29:28.658Z,0.80
2018-11-02T06:31:54.753Z,0.97
2018-11-02T06:34:20.764Z,0.77
2018-11-02T06:36:46.722Z,1.00
2018-11-02T06:39:12.736Z,1.00
2018-11-02T06:41:39.426Z,0.77
2018-11-02T06:44:05.413Z,0.77
2018-11-02T06:46:32.124Z,1.20
2018-11-02T06:48:58.879Z,1.10
2018-11-02T06:51:24.870Z,1.03
2018-11-02T06:53:50.864Z,0.70
2018-11-02T06:56:16.835Z,0.97
2018-11-02T06:58:42.790Z,0.70
2018-11-02T07:01:08.775Z,1.17
2018-11-02T07:03:35.494Z,0.83
2018-11-02T07:06:01.512Z,1.10
2018-11-02T07:08:27.485Z,1.10
2018-11-02T07:10:53.499Z,0.90
2018-11-02T07:13:20.233Z,0.90
2018-11-02T07:15:46.991Z,0.83
2018-11-02T07:18:13.690Z,0.90
2018-11-02T07:20:39.685Z,0.97
2018-11-02T07:23:05.698Z,0.90
2018-11-02T07:25:31.700Z,1.10
2018-11-02T07:27:57.656Z,1.00
2018-11-02T07:30:23.630Z,0.80
2018-11-02T07:32:50.374Z,0.87
2018-11-02T07:35:17.112Z,1.03
2018-11-02T07:37:43.077Z,1.20
2018-11-02T07:40:09.036Z,0.93
2018-11-02T07:42:35.036Z,1.10
2018-11-02T07:45:00.998Z,1.10
2018-11-02T07:47:27.009Z,0.97
2018-11-02T07:49:52.988Z,1.00
2018-11-02T07:52:18.991Z,1.00
2018-11-02T07:54:44.951Z,1.03
2018-11-02T07:57:10.924Z,0.90
2018-11-02T07:59:36.948Z,0.97
2018-11-02T08:02:02.939Z,1.10
2018-11-02T08:04:28.884Z,0.90
2018-11-02T08:06:54.836Z,0.83
2018-11-02T08:09:20.843Z,0.77
2018-11-02T08:11:47.556Z,1.17
2018-11-02T08:14:13.536Z,1.07
2018-11-02T08:16:39.530Z,1.50
2018-11-02T08:19:05.515Z,1.93
2018-11-02T08:21:31.479Z,1.20
2018-11-02T08:23:58.172Z,1.10
2018-11-02T08:26:24.160Z,1.10
2018-11-02T08:28:50.137Z,1.43
2018-11-02T08:31:16.126Z,1.10
2018-11-02T08:33:42.069Z,1.23
2018-11-02T08:36:08.043Z,1.03
2018-11-02T08:38:34.017Z,1.40
2018-11-02T08:40:59.974Z,1.47
2018-11-02T08:43:26.707Z,1.10
2018-11-02T08:45:53.415Z,1.40
2018-11-02T08:48:19.413Z,1.33
2018-11-02T08:50:45.390Z,1.00
2018-11-02T08:53:12.128Z,1.10
2018-11-02T08:55:38.857Z,1.20
2018-11-02T08:58:05.022Z,1.00
2018-11-02T09:00:30.832Z,1.20
2018-11-02T09:02:57.551Z,0.90
2018-11-02T09:05:24.271Z,0.80
2018-11-02T09:07:50.261Z,1.20
2018-11-02T09:10:16.273Z,1.20
2018-11-02T09:12:42.233Z,1.13
2018-11-02T09:15:08.219Z,0.90
2018-11-02T09:17:34.179Z,1.30
2018-11-02T09:20:00.152Z,1.13
2018-11-02T09:22:26.872Z,1.20
2018-11-02T09:24:53.631Z,1.10
2018-11-02T09:27:20.418Z,1.00
2018-11-02T09:29:46.371Z,1.27
2018-11-02T09:32:13.092Z,1.30
2018-11-02T09:34:39.067Z,1.23
2018-11-02T09:37:05.036Z,1.43
2018-11-02T09:39:31.032Z,1.37
2018-11-02T09:41:56.995Z,1.10
2018-11-02T09:44:22.948Z,0.90
2018-11-02T09:46:48.951Z,0.97
2018-11-02T09:49:15.666Z,0.90
2018-11-02T09:51:41.773Z,1.33
2018-11-02T09:54:07.657Z,1.07
2018-11-02T09:56:33.664Z,1.27
2018-11-02T09:58:59.645Z,1.13
2018-11-02T10:01:25.646Z,0.97
2018-11-02T10:03:51.648Z,1.20
2018-11-02T10:06:17.624Z,1.13
2018-11-02T10:08:43.649Z,0.97
2018-11-02T10:11:09.651Z,0.87
2018-11-02T10:13:35.660Z,0.80
2018-11-02T10:16:01.629Z,0.67
2018-11-02T10:18:27.630Z,0.60
2018-11-02T10:20:53.619Z,0.57
2018-11-02T10:23:19.639Z,0.80
2018-11-02T10:25:45.608Z,0.60
2018-11-02T10:28:11.665Z,0.70
2018-11-02T10:30:37.630Z,0.60
2018-11-02T10:33:03.629Z,0.70
2018-11-02T10:35:29.744Z,0.60
2018-11-02T10:37:55.619Z,0.70
2018-11-02T10:40:21.621Z,0.63
2018-11-02T10:42:47.594Z,0.90
2018-11-02T10:45:14.358Z,0.90
2018-11-02T10:47:40.338Z,0.80
2018-11-02T10:50:07.103Z,0.60
2018-11-02T10:52:33.818Z,0.70
2018-11-02T10:55:00.115Z,0.60
2018-11-02T10:57:26.101Z,0.60
2018-11-02T10:59:52.854Z,0.67
2018-11-02T11:02:18.838Z,0.67
2018-11-02T11:04:44.807Z,0.80
2018-11-02T11:07:17.639Z,0.60
2018-11-02T11:09:43.643Z,0.60
2018-11-02T11:12:09.713Z,0.87
2018-11-02T11:14:35.663Z,0.80
2018-11-02T11:17:01.663Z,0.70
2018-11-02T11:19:28.376Z,0.40
2018-11-02T11:21:54.379Z,0.77
2018-11-02T11:24:20.375Z,0.50
2018-11-02T11:26:46.394Z,0.73
2018-11-02T11:29:12.382Z,0.70
2018-11-02T11:31:38.346Z,0.80
2018-11-02T11:34:04.343Z,0.70
2018-11-02T11:36:30.351Z,0.53
2018-11-02T11:38:57.112Z,0.70
2018-11-02T11:41:23.823Z,0.70
2018-11-02T11:43:49.844Z,0.70
2018-11-02T11:46:15.833Z,0.60
2018-11-02T11:48:41.858Z,0.43
2018-11-02T11:51:07.817Z,0.70
2018-11-02T11:53:33.824Z,0.50
2018-11-02T11:55:59.814Z,0.60
2018-11-02T11:58:25.811Z,0.60
2018-11-02T12:00:52.517Z,0.57
2018-11-02T12:03:18.533Z,0.63
2018-11-02T12:05:44.542Z,0.57
2018-11-02T12:08:10.550Z,0.53
2018-11-02T12:10:36.524Z,0.57
2018-11-02T12:13:03.249Z,0.70
2018-11-02T12:15:29.253Z,0.67
2018-11-02T12:17:55.266Z,0.67
2018-11-02T12:20:21.251Z,0.53
2018-11-02T12:22:47.983Z,0.40
2018-11-02T12:25:14.721Z,0.70
2018-11-02T12:27:41.412Z,0.63
2018-11-02T12:30:07.435Z,0.40
2018-11-02T12:32:34.187Z,0.60
2018-11-02T12:35:00.148Z,0.50
2018-11-02T12:37:26.865Z,0.60
2018-11-02T12:39:52.842Z,0.50
2018-11-02T12:42:18.867Z,0.53
2018-11-02T12:44:44.835Z,0.50
2018-11-02T12:47:10.825Z,0.50
2018-11-02T12:49:37.260Z,0.70
2018-11-02T12:52:03.653Z,0.80
2018-11-02T12:54:29.664Z,0.40
2018-11-02T12:56:56.411Z,0.67
2018-11-02T12:59:23.132Z,0.50
2018-11-02T13:01:49.119Z,0.77
2018-11-02T13:04:15.115Z,0.60
2018-11-02T13:06:41.141Z,0.40
2018-11-02T13:09:07.127Z,0.40
2018-11-02T13:11:33.127Z,0.63
2018-11-02T13:13:59.126Z,0.40
2018-11-02T13:16:25.113Z,0.43
2018-11-02T13:18:51.169Z,0.40
2018-11-02T13:21:17.871Z,0.40
2018-11-02T13:23:44.622Z,0.50
2018-11-02T13:26:11.514Z,0.40
2018-11-02T13:28:37.353Z,0.47
2018-11-02T13:31:03.428Z,0.40
2018-11-02T13:33:29.341Z,0.50
2018-11-02T13:35:56.051Z,0.60
2018-11-02T13:38:22.040Z,0.83
2018-11-02T13:40:48.035Z,0.77
2018-11-02T13:43:14.113Z,0.60
2018-11-02T13:45:40.021Z,0.50
2018-11-02T13:48:05.992Z,0.57
2018-11-02T13:50:32.822Z,0.70
2018-11-02T13:52:58.726Z,0.70
2018-11-02T13:55:24.742Z,0.60
2018-11-02T13:57:50.753Z,0.60
2018-11-02T14:00:16.864Z,0.67
2018-11-02T14:02:42.788Z,0.40
2018-11-02T14:05:08.768Z,0.70
2018-11-02T14:07:35.528Z,0.50
2018-11-02T14:10:01.510Z,1.20
2018-11-02T14:12:27.501Z,2.17
2018-11-02T14:14:53.479Z,1.03
2018-11-02T14:17:20.224Z,2.00
2018-11-02T14:19:46.929Z,1.10
2018-11-02T14:22:12.896Z,0.60
2018-11-02T14:24:38.927Z,0.40
2018-11-02T14:27:04.931Z,0.50
2018-11-02T14:29:30.986Z,0.60
2018-11-02T14:31:56.925Z,0.40
2018-11-02T14:34:22.941Z,0.40
2018-11-02T14:36:48.915Z,0.60
2018-11-02T14:39:15.651Z,0.47
2018-11-02T14:41:42.377Z,0.67
2018-11-02T14:44:08.399Z,0.50
2018-11-02T14:46:35.237Z,0.77
2018-11-02T14:49:01.139Z,0.73
2018-11-02T14:51:27.148Z,0.80
2018-11-02T14:53:53.232Z,1.00
2018-11-02T14:56:19.123Z,0.43
2018-11-02T14:58:45.146Z,0.60
2018-11-02T15:01:11.134Z,0.60
2018-11-02T15:03:37.086Z,0.77
2018-11-02T15:06:03.076Z,1.00
2018-11-02T15:08:29.094Z,0.90
2018-11-02T15:10:55.073Z,0.80
2018-11-02T15:13:21.075Z,0.70
2018-11-02T15:15:47.082Z,0.90
2018-11-02T15:18:13.090Z,0.90
2018-11-02T15:20:39.065Z,1.30
2018-11-02T15:23:05.049Z,1.10
2018-11-02T15:25:31.026Z,1.20
2018-11-02T15:27:57.761Z,1.77
2018-11-02T15:30:23.734Z,2.17
2018-11-02T15:32:49.727Z,1.10
2018-11-02T15:35:15.706Z,0.90
2018-11-02T15:37:41.714Z,1.10
2018-11-02T15:40:07.680Z,0.90
2018-11-02T15:42:34.438Z,0.80
2018-11-02T15:45:00.421Z,1.00
2018-11-02T15:47:26.440Z,1.20
2018-11-02T15:49:52.421Z,1.20
2018-11-02T15:52:18.410Z,1.23
2018-11-02T15:54:45.106Z,1.10
2018-11-02T15:57:11.081Z,1.20
2018-11-02T15:59:37.811Z,1.27
2018-11-02T16:02:03.784Z,1.40
2018-11-02T16:04:29.797Z,1.50
2018-11-02T16:06:55.803Z,1.50
2018-11-02T16:09:21.779Z,1.40
2018-11-02T16:11:47.751Z,1.10
2018-11-02T16:14:13.817Z,1.00
2018-11-02T16:16:39.793Z,1.10
2018-11-02T16:19:06.524Z,0.90
2018-11-02T16:21:33.276Z,0.83
2018-11-02T16:23:59.292Z,1.10
2018-11-02T16:26:25.311Z,1.20
2018-11-02T16:28:51.276Z,1.20
2018-11-02T16:31:17.317Z,2.10
2018-11-02T16:33:43.308Z,1.77
2018-11-02T16:36:09.315Z,2.13
2018-11-02T16:38:35.286Z,2.07
2018-11-02T16:41:01.298Z,1.93
2018-11-02T16:43:27.338Z,1.80
2018-11-02T16:45:53.328Z,1.80
2018-11-02T16:48:19.299Z,2.37
2018-11-02T16:50:46.059Z,1.73
2018-11-02T16:53:12.775Z,1.73
2018-11-02T16:55:38.795Z,1.70
2018-11-02T16:58:04.840Z,1.80
2018-11-02T17:00:30.757Z,1.80
2018-11-02T17:02:56.783Z,2.20
2018-11-02T17:05:22.738Z,2.50
2018-11-02T17:07:48.754Z,2.23
2018-11-02T17:10:14.746Z,2.70
2018-11-02T17:12:41.521Z,2.97
2018-11-02T17:15:07.524Z,2.70
2018-11-02T17:17:34.266Z,3.43
2018-11-02T17:20:00.994Z,2.83
2018-11-02T17:22:27.754Z,2.57
2018-11-02T17:24:54.470Z,2.53
2018-11-02T17:27:20.453Z,2.83
2018-11-02T17:29:46.429Z,2.97
2018-11-02T17:32:13.133Z,2.97
2018-11-02T17:34:39.140Z,3.00
2018-11-02T17:37:05.119Z,3.13
2018-11-02T17:39:31.869Z,2.17
2018-11-02T17:41:57.883Z,1.77
2018-11-02T17:44:25.158Z,1.50
2018-11-02T17:46:51.138Z,1.47
2018-11-02T17:49:17.138Z,1.87
2018-11-02T17:51:43.112Z,2.10
2018-11-02T17:54:09.874Z,3.10
2018-11-02T17:56:35.893Z,3.23
2018-11-02T17:59:01.924Z,3.40
2018-11-02T18:01:27.911Z,2.90
2018-11-02T18:03:54.657Z,4.13
2018-11-02T18:06:20.641Z,3.50
2018-11-02T18:08:46.638Z,3.20
2018-11-02T18:11:12.652Z,3.67
2018-11-02T18:13:38.635Z,3.70
2018-11-02T18:16:04.630Z,3.43
2018-11-02T18:18:30.686Z,3.40
2018-11-02T18:20:56.650Z,3.20
2018-11-02T18:23:22.618Z,3.37
2018-11-02T18:25:48.628Z,4.00
2018-11-02T18:28:14.625Z,3.63
2018-11-02T18:30:40.623Z,4.10
2018-11-02T18:33:06.660Z,3.33
2018-11-02T18:35:32.695Z,3.00
2018-11-02T18:37:58.630Z,3.10
2018-11-02T18:40:24.636Z,4.03
2018-11-02T18:42:50.653Z,3.13
2018-11-02T18:45:16.643Z,3.03
2018-11-02T18:47:43.472Z,2.60
2018-11-02T18:50:09.469Z,2.60
2018-11-02T18:52:35.457Z,2.47
2018-11-02T18:55:02.180Z,2.37
2018-11-02T18:57:28.929Z,2.17
2018-11-02T18:59:55.664Z,2.10
2018-11-02T19:02:21.639Z,2.47
2018-11-02T19:04:47.647Z,2.07
2018-11-02T19:07:13.625Z,2.17
2018-11-02T19:09:40.454Z,2.10
2018-11-02T19:12:07.191Z,2.67
2018-11-02T19:14:33.171Z,1.90
2018-11-02T19:16:59.174Z,2.20
2018-11-02T19:19:25.169Z,1.80
2018-11-02T19:21:51.933Z,2.13
2018-11-02T19:24:17.957Z,2.30
2018-11-02T19:26:43.994Z,1.90
2018-11-02T19:29:09.983Z,2.80
2018-11-02T19:31:36.741Z,2.87
2018-11-02T19:34:02.753Z,3.07
2018-11-02T19:36:28.807Z,3.57
2018-11-02T19:38:54.864Z,2.93
2018-11-02T19:41:21.653Z,3.20
2018-11-02T19:43:48.380Z,3.03
2018-11-02T19:46:14.403Z,2.60
2018-11-02T19:48:40.369Z,2.43
2018-11-02T19:51:06.428Z,3.00
2018-11-02T19:53:32.471Z,2.57
2018-11-02T19:55:59.212Z,2.70
2018-11-02T19:58:25.950Z,3.00
2018-11-02T20:00:52.030Z,2.37
2018-11-02T20:03:18.741Z,2.60
2018-11-02T20:05:44.764Z,2.43
2018-11-02T20:08:11.503Z,2.87
2018-11-02T20:10:37.521Z,2.83
2018-11-02T20:13:04.269Z,3.37
2018-11-02T20:15:30.969Z,3.00
2018-11-02T20:17:56.978Z,2.70
2018-11-02T20:20:22.987Z,3.07
2018-11-02T20:22:49.081Z,2.87
2018-11-02T20:25:15.794Z,3.03
2018-11-02T20:27:41.772Z,2.50
2018-11-02T20:30:07.794Z,2.37
2018-11-02T20:32:33.772Z,3.03
2018-11-02T20:34:59.756Z,3.00
2018-11-02T20:37:25.755Z,3.47
2018-11-02T20:39:51.781Z,4.40
2018-11-02T20:42:17.746Z,4.63
2018-11-02T20:44:43.769Z,4.30
2018-11-02T20:47:09.758Z,4.13
2018-11-02T20:49:35.777Z,3.63
2018-11-02T20:52:01.761Z,3.83
2018-11-02T20:54:28.480Z,3.47
2018-11-02T20:56:54.487Z,3.47
2018-11-02T20:59:20.461Z,3.50
2018-11-02T21:01:46.475Z,3.27
2018-11-02T21:04:12.467Z,3.37
2018-11-02T21:06:38.473Z,3.07
2018-11-02T21:09:04.664Z,4.00
2018-11-02T21:11:30.479Z,3.33
2018-11-02T21:13:56.541Z,3.33
2018-11-02T21:16:22.658Z,3.30
2018-11-02T21:18:49.400Z,3.23
2018-11-02T21:21:16.260Z,3.57
2018-11-02T21:23:42.243Z,3.03
2018-11-02T21:26:08.335Z,3.30
2018-11-02T21:28:34.351Z,3.30
2018-11-02T21:31:00.343Z,3.57
2018-11-02T21:33:26.345Z,3.23
2018-11-02T21:35:52.323Z,3.50
2018-11-02T21:38:19.164Z,3.23
2018-11-02T21:40:45.786Z,3.10
2018-11-02T21:43:12.560Z,3.47
2018-11-02T21:45:39.250Z,2.80
2018-11-02T21:48:05.261Z,3.10
2018-11-02T21:50:31.272Z,2.90
2018-11-02T21:52:57.245Z,3.83
2018-11-02T21:55:23.230Z,3.50
2018-11-02T21:57:49.980Z,4.00
2018-11-02T22:00:16.012Z,3.67
2018-11-02T22:02:41.969Z,3.67
2018-11-02T22:05:08.728Z,3.80
2018-11-02T22:07:35.441Z,3.83
2018-11-02T22:10:01.437Z,3.17
2018-11-02T22:12:27.435Z,3.57
2018-11-02T22:14:54.404Z,3.60
2018-11-02T22:17:20.393Z,3.60
2018-11-02T22:19:47.118Z,3.60
2018-11-02T22:22:13.139Z,3.73
2018-11-02T22:24:39.979Z,3.83
2018-11-02T22:27:06.029Z,3.17
2018-11-02T22:29:32.064Z,3.77
2018-11-02T22:31:58.111Z,3.53
2018-11-02T22:34:24.083Z,3.80
2018-11-02T22:36:50.540Z,3.90
2018-11-02T22:39:17.291Z,3.77
2018-11-02T22:41:43.278Z,3.43
2018-11-02T22:44:09.987Z,3.43
2018-11-02T22:46:35.998Z,3.83
2018-11-02T22:49:02.015Z,3.90
2018-11-02T22:51:28.047Z,3.30
2018-11-02T22:53:54.071Z,3.80
2018-11-02T22:56:20.064Z,3.73
2018-11-02T22:58:46.077Z,3.53
2018-11-02T23:01:12.094Z,3.50
2018-11-02T23:03:38.814Z,3.70
2018-11-02T23:06:05.595Z,2.97
2018-11-02T23:08:32.326Z,3.60
2018-11-02T23:10:58.304Z,3.53
2018-11-02T23:13:24.281Z,3.83
2018-11-02T23:15:50.262Z,4.10
2018-11-02T23:18:17.014Z,3.50
2018-11-02T23:20:43.787Z,3.23
2018-11-02T23:23:09.802Z,3.27
2018-11-02T23:25:35.788Z,3.63
2018-11-02T23:28:01.792Z,3.83
2018-11-02T23:30:27.778Z,3.20
2018-11-02T23:32:53.808Z,3.60
2018-11-02T23:35:19.804Z,3.57
2018-11-02T23:37:46.570Z,3.33
2018-11-02T23:40:12.554Z,4.03
2018-11-02T23:42:39.292Z,3.90
2018-11-02T23:45:05.308Z,3.27
2018-11-02T23:47:31.277Z,3.77
2018-11-02T23:49:57.261Z,3.73
2018-11-02T23:52:23.986Z,4.33
2018-11-02T23:54:49.957Z,4.50
2018-11-02T23:57:15.938Z,4.13
2018-11-02T23:59:41.931Z,3.97
